createdAt,value
2019-05-05T00:00:41.667Z,95699.54
2019-05-05T00:03:08.953Z,95697.77
2019-05-05T00:05:36.295Z,95688.73
2019-05-05T00:08:04.903Z,95690.50
2019-05-05T00:10:34.651Z,95694.30
2019-05-05T00:13:01.435Z,95695.25
2019-05-05T00:15:28.761Z,95699.12
2019-05-05T00:17:56.159Z,95694.30
2019-05-05T00:20:25.026Z,95696.89
2019-05-05T00:22:52.126Z,95697.02
2019-05-05T00:25:19.435Z,95702.32
2019-05-05T00:27:46.741Z,95712.38
2019-05-05T00:30:14.452Z,95715.31
2019-05-05T00:32:41.459Z,95716.33
2019-05-05T00:35:08.853Z,95713.48
2019-05-05T00:37:37.109Z,95707.02
2019-05-05T00:40:05.018Z,95707.16
2019-05-05T00:42:32.116Z,95704.23
2019-05-05T00:44:59.172Z,95711.84
2019-05-05T00:47:26.450Z,95711.16
2019-05-05T00:49:53.500Z,95716.81
2019-05-05T00:52:20.551Z,95716.47
2019-05-05T00:54:47.838Z,95724.56
2019-05-05T00:57:15.117Z,95720.34
2019-05-05T00:59:42.428Z,95716.81
2019-05-05T01:02:09.464Z,95718.84
2019-05-05T01:04:36.759Z,95714.77
2019-05-05T01:07:05.080Z,95725.02
2019-05-05T01:09:34.305Z,95725.29
2019-05-05T01:12:01.560Z,95727.66
2019-05-05T01:14:28.904Z,95732.27
2019-05-05T01:16:55.945Z,95719.77
2019-05-05T01:19:24.326Z,95717.31
2019-05-05T01:21:51.520Z,95729.67
2019-05-05T01:24:18.563Z,95734.92
2019-05-05T01:26:45.615Z,95736.34
2019-05-05T01:29:14.571Z,95738.92
2019-05-05T01:31:41.406Z,95747.02
2019-05-05T01:34:08.450Z,95750.55
2019-05-05T01:36:35.813Z,95748.91
2019-05-05T01:39:04.226Z,95754.16
2019-05-05T01:41:34.767Z,95762.38
2019-05-05T01:44:01.913Z,95760.05
2019-05-05T01:46:29.218Z,95768.02
2019-05-05T01:48:56.506Z,95759.45
2019-05-05T01:51:24.771Z,95756.92
2019-05-05T01:53:52.119Z,95755.25
2019-05-05T01:56:19.436Z,95752.16
2019-05-05T01:58:46.472Z,95752.55
2019-05-05T02:01:15.265Z,95758.58
2019-05-05T02:03:44.285Z,95759.30
2019-05-05T02:06:11.337Z,95758.48
2019-05-05T02:08:38.370Z,95752.98
2019-05-05T02:11:05.427Z,95754.61
2019-05-05T02:13:34.612Z,95759.65
2019-05-05T02:16:01.478Z,95761.84
2019-05-05T02:18:29.485Z,95766.14
2019-05-05T02:20:56.808Z,95756.29
2019-05-05T02:23:24.597Z,95755.47
2019-05-05T02:25:55.189Z,95766.66
2019-05-05T02:28:24.064Z,95765.88
2019-05-05T02:30:50.729Z,95777.87
2019-05-05T02:33:18.021Z,95770.47
2019-05-05T02:35:46.086Z,95772.36
2019-05-05T02:38:15.724Z,95777.77
2019-05-05T02:40:45.053Z,95784.22
2019-05-05T02:43:11.158Z,95784.78
2019-05-05T02:45:38.193Z,95783.02
2019-05-05T02:48:06.120Z,95784.09
2019-05-05T02:50:48.228Z,95787.40
2019-05-05T02:53:04.060Z,95789.76
2019-05-05T02:55:32.787Z,95792.00
2019-05-05T02:58:00.398Z,95793.53
2019-05-05T03:00:27.702Z,95792.13
2019-05-05T03:02:54.755Z,95791.65
2019-05-05T03:05:23.561Z,95789.85
2019-05-05T03:07:50.927Z,95798.41
2019-05-05T03:10:18.227Z,95804.00
2019-05-05T03:12:45.273Z,95802.46
2019-05-05T03:15:14.297Z,95794.84
2019-05-05T03:17:41.651Z,95793.14
2019-05-05T03:20:08.693Z,95792.07
2019-05-05T03:22:35.983Z,95797.77
2019-05-05T03:25:04.663Z,95797.65
2019-05-05T03:27:34.007Z,95798.66
2019-05-05T03:30:00.524Z,95801.10
2019-05-05T03:32:27.821Z,95804.22
2019-05-05T03:34:55.124Z,95805.98
2019-05-05T03:37:22.508Z,95806.33
2019-05-05T03:39:49.806Z,95807.68
2019-05-05T03:42:17.113Z,95804.09
2019-05-05T03:44:44.387Z,95807.80
2019-05-05T03:47:13.482Z,95809.16
2019-05-05T03:49:40.738Z,95809.33
2019-05-05T03:52:08.087Z,95811.13
2019-05-05T03:54:35.122Z,95812.53
2019-05-05T03:57:03.548Z,95809.86
2019-05-05T03:59:30.989Z,95807.44
2019-05-05T04:01:58.352Z,95806.77
2019-05-05T04:04:25.396Z,95809.37
2019-05-05T04:06:54.039Z,95806.48
2019-05-05T04:09:21.169Z,95812.92
2019-05-05T04:11:48.206Z,95806.76
2019-05-05T04:14:18.266Z,95812.58
2019-05-05T04:16:44.714Z,95808.12
2019-05-05T04:19:13.859Z,95809.85
2019-05-05T04:21:40.960Z,95813.56
2019-05-05T04:24:08.023Z,95810.36
2019-05-05T04:26:35.310Z,95814.89
2019-05-05T04:29:05.300Z,95811.38
2019-05-05T04:31:31.401Z,95816.09
2019-05-05T04:33:58.759Z,95820.43
2019-05-05T04:36:25.800Z,95813.61
2019-05-05T04:38:54.545Z,95811.34
2019-05-05T04:41:24.566Z,95812.72
2019-05-05T04:43:54.758Z,95824.08
2019-05-05T04:46:24.412Z,95818.20
2019-05-05T04:48:51.288Z,95825.39
2019-05-05T04:51:18.321Z,95830.05
2019-05-05T04:53:45.370Z,95840.13
2019-05-05T04:56:14.126Z,95832.30
2019-05-05T04:58:41.549Z,95831.79
2019-05-05T05:01:08.582Z,95838.55
2019-05-05T05:03:35.635Z,95839.55
2019-05-05T05:06:04.147Z,95842.61
2019-05-05T05:08:33.681Z,95840.88
2019-05-05T05:11:00.657Z,95846.91
2019-05-05T05:13:27.709Z,95851.20
2019-05-05T05:15:55.059Z,95845.63
2019-05-05T05:18:24.031Z,95843.79
2019-05-05T05:20:51.371Z,95848.58
2019-05-05T05:23:18.397Z,95853.05
2019-05-05T05:25:45.437Z,95852.36
2019-05-05T05:28:14.405Z,95854.95
2019-05-05T05:30:43.787Z,95863.59
2019-05-05T05:33:10.639Z,95860.46
2019-05-05T05:35:38.014Z,95869.92
2019-05-05T05:38:05.361Z,95880.85
2019-05-05T05:40:34.203Z,95887.80
2019-05-05T05:43:01.495Z,95897.10
2019-05-05T05:45:28.573Z,95897.53
2019-05-05T05:47:55.898Z,95894.13
2019-05-05T05:50:24.527Z,95899.95
2019-05-05T05:52:53.957Z,95903.44
2019-05-05T05:55:21.135Z,95914.11
2019-05-05T05:57:48.491Z,95909.68
2019-05-05T06:00:15.848Z,95916.36
2019-05-05T06:02:43.950Z,95912.45
2019-05-05T06:05:11.499Z,95922.55
2019-05-05T06:07:38.535Z,95921.10
2019-05-05T06:10:05.582Z,95923.84
2019-05-05T06:12:33.700Z,95927.12
2019-05-05T06:15:01.101Z,95935.25
2019-05-05T06:17:28.137Z,95934.48
2019-05-05T06:19:55.185Z,95926.03
2019-05-05T06:22:29.424Z,95932.58
2019-05-05T06:24:50.959Z,95933.53
2019-05-05T06:27:18.296Z,95940.20
2019-05-05T06:29:45.341Z,95939.30
2019-05-05T06:32:14.632Z,95950.16
2019-05-05T06:34:41.789Z,95955.75
2019-05-05T06:37:09.064Z,95955.33
2019-05-05T06:39:36.412Z,95958.42
2019-05-05T06:42:04.520Z,95960.36
2019-05-05T06:44:33.825Z,95965.01
2019-05-05T06:47:01.022Z,95964.33
2019-05-05T06:49:31.121Z,95960.33
2019-05-05T06:51:57.388Z,95970.75
2019-05-05T06:54:24.947Z,95977.17
2019-05-05T06:56:53.883Z,95971.35
2019-05-05T06:59:21.406Z,95981.40
2019-05-05T07:01:48.735Z,95983.03
2019-05-05T07:04:16.087Z,95984.11
2019-05-05T07:06:53.601Z,95980.86
2019-05-05T07:09:13.903Z,95992.33
2019-05-05T07:11:40.985Z,95993.52
2019-05-05T07:14:08.012Z,96001.05
2019-05-05T07:16:35.269Z,96004.15
2019-05-05T07:19:04.384Z,96008.62
2019-05-05T07:21:31.299Z,96016.16
2019-05-05T07:23:58.336Z,96010.61
2019-05-05T07:26:25.630Z,96027.11
2019-05-05T07:28:54.095Z,96022.17
2019-05-05T07:31:21.311Z,96022.28
2019-05-05T07:33:48.349Z,96027.80
2019-05-05T07:36:15.413Z,96030.03
2019-05-05T07:38:44.191Z,96027.73
2019-05-05T07:41:11.399Z,96037.22
2019-05-05T07:43:38.429Z,96039.95
2019-05-05T07:46:05.856Z,96042.83
2019-05-05T07:48:33.581Z,96045.47
2019-05-05T07:51:04.453Z,96043.10
2019-05-05T07:53:30.599Z,96052.84
2019-05-05T07:55:57.654Z,96049.19
2019-05-05T07:58:24.690Z,96056.36
2019-05-05T08:00:53.991Z,96059.91
2019-05-05T08:03:20.500Z,96061.11
2019-05-05T08:05:47.546Z,96066.64
2019-05-05T08:08:14.829Z,96060.86
2019-05-05T08:10:43.772Z,96064.14
2019-05-05T08:13:10.885Z,96057.09
2019-05-05T08:15:38.194Z,96062.75
2019-05-05T08:18:05.550Z,96061.67
2019-05-05T08:20:33.877Z,96064.02
2019-05-05T08:23:01.311Z,96071.73
2019-05-05T08:25:39.364Z,96068.94
2019-05-05T08:27:57.632Z,96066.75
2019-05-05T08:30:24.668Z,96070.73
2019-05-05T08:32:53.909Z,96074.02
2019-05-05T08:35:20.870Z,96069.41
2019-05-05T08:37:48.200Z,96070.40
2019-05-05T08:40:15.237Z,96075.85
2019-05-05T08:42:44.527Z,96072.84
2019-05-05T08:45:13.827Z,96070.80
2019-05-05T08:47:40.731Z,96070.73
2019-05-05T08:50:08.034Z,96075.28
2019-05-05T08:52:35.406Z,96068.70
2019-05-05T08:55:04.538Z,96070.20
2019-05-05T08:57:31.533Z,96070.02
2019-05-05T08:59:58.574Z,96072.30
2019-05-05T09:02:25.929Z,96068.04
2019-05-05T09:04:53.890Z,96069.55
2019-05-05T09:07:21.253Z,96072.13
2019-05-05T09:09:48.713Z,96064.12
2019-05-05T09:12:16.066Z,96058.52
2019-05-05T09:14:44.881Z,96062.25
2019-05-05T09:17:13.655Z,96057.73
2019-05-05T09:19:42.266Z,96051.00
2019-05-05T09:22:09.585Z,96055.63
2019-05-05T09:24:36.937Z,96051.66
2019-05-05T09:27:03.994Z,96064.75
2019-05-05T09:29:31.039Z,96060.74
2019-05-05T09:31:58.393Z,96062.79
2019-05-05T09:34:25.441Z,96058.73
2019-05-05T09:36:54.413Z,96061.48
2019-05-05T09:39:23.979Z,96066.25
2019-05-05T09:41:53.475Z,96066.52
2019-05-05T09:44:20.395Z,96067.81
2019-05-05T09:46:47.765Z,96060.24
2019-05-05T09:49:14.818Z,96061.89
2019-05-05T09:51:44.001Z,96057.92
2019-05-05T09:54:14.265Z,96061.27
2019-05-05T09:56:39.944Z,96058.31
2019-05-05T09:59:06.994Z,96058.36
2019-05-05T10:01:34.039Z,96061.69
2019-05-05T10:04:01.090Z,96055.27
2019-05-05T10:06:28.634Z,96063.58
2019-05-05T10:08:56.013Z,96057.56
2019-05-05T10:11:23.880Z,96057.91
2019-05-05T10:13:51.328Z,96067.89
2019-05-05T10:16:18.598Z,96072.15
2019-05-05T10:18:45.917Z,96075.97
2019-05-05T10:21:25.621Z,96073.69
2019-05-05T10:23:54.045Z,96073.22
2019-05-05T10:26:21.546Z,96076.80
2019-05-05T10:28:48.961Z,96077.72
2019-05-05T10:31:17.216Z,96074.20
2019-05-05T10:33:44.592Z,96077.66
2019-05-05T10:36:13.848Z,96074.08
2019-05-05T10:38:41.043Z,96081.41
2019-05-05T10:41:08.403Z,96073.84
2019-05-05T10:43:35.451Z,96072.45
2019-05-05T10:46:03.834Z,96075.48
2019-05-05T10:51:12.771Z,96074.05
2019-05-05T10:53:40.073Z,96077.86
2019-05-05T10:56:07.107Z,96067.37
2019-05-05T10:58:34.158Z,96069.09
2019-05-05T11:01:01.498Z,96064.03
2019-05-05T11:03:28.834Z,96062.52
2019-05-05T11:05:57.221Z,96063.38
2019-05-05T11:08:24.565Z,96055.47
2019-05-05T11:10:55.218Z,96055.52
2019-05-05T11:15:48.696Z,96055.53
2019-05-05T11:18:15.724Z,96065.41
2019-05-05T11:20:44.699Z,96070.27
2019-05-05T11:23:14.560Z,96060.97
2019-05-05T11:25:41.373Z,96069.06
2019-05-05T11:28:08.725Z,96059.84
2019-05-05T11:30:36.099Z,96059.47
2019-05-05T11:33:04.044Z,96061.98
2019-05-05T11:35:31.196Z,96064.88
2019-05-05T11:38:10.774Z,96070.70
2019-05-05T11:40:39.251Z,96077.81
2019-05-05T11:43:14.207Z,96076.81
2019-05-05T11:45:41.170Z,96073.78
2019-05-05T11:48:20.575Z,96079.36
2019-05-05T11:50:48.762Z,96081.19
2019-05-05T11:53:20.098Z,96079.40
2019-05-05T11:55:47.623Z,96084.13
2019-05-05T11:58:14.981Z,96079.23
2019-05-05T12:03:23.456Z,96092.44
2019-05-05T12:05:51.635Z,96082.66
2019-05-05T12:08:20.815Z,96083.23
2019-05-05T12:10:48.349Z,96086.17
2019-05-05T12:13:26.146Z,96085.92
2019-05-05T12:18:44.993Z,96090.64
2019-05-05T12:21:14.112Z,96092.93
2019-05-05T12:23:44.369Z,96095.70
2019-05-05T12:28:48.262Z,96101.89
2019-05-05T12:31:16.488Z,96101.59
2019-05-05T12:33:47.589Z,96104.50
2019-05-05T12:39:07.900Z,96100.28
2019-05-05T12:44:14.617Z,96104.11
2019-05-05T12:49:25.418Z,96099.34
2019-05-05T12:54:36.772Z,96096.03
2019-05-05T12:57:09.476Z,96098.16
2019-05-05T12:59:36.637Z,96096.51
2019-05-05T13:02:07.671Z,96102.43
2019-05-05T13:07:27.447Z,96090.09
2019-05-05T13:12:46.266Z,96090.52
2019-05-05T13:15:14.355Z,96088.61
2019-05-05T13:17:45.761Z,96087.80
2019-05-05T13:22:47.970Z,96077.12
2019-05-05T13:25:16.407Z,96089.80
2019-05-05T13:27:50.555Z,96081.80
2019-05-05T13:30:21.359Z,96088.63
2019-05-05T13:32:49.576Z,96080.70
2019-05-05T13:35:17.840Z,96079.62
2019-05-05T13:37:49.416Z,96084.33
2019-05-05T13:40:27.610Z,96079.14
2019-05-05T13:45:29.497Z,96081.13
2019-05-05T13:47:58.956Z,96080.54
2019-05-05T13:50:34.129Z,96084.27
2019-05-05T13:55:34.761Z,96082.87
2019-05-05T13:58:08.804Z,96085.38
2019-05-05T14:00:40.664Z,96091.36
2019-05-05T14:03:10.327Z,96096.03
2019-05-05T14:05:53.986Z,96095.21
2019-05-05T14:08:23.733Z,96087.36
2019-05-05T14:10:51.550Z,96089.59
2019-05-05T14:13:27.840Z,96080.16
2019-05-05T14:15:54.890Z,96078.39
2019-05-05T14:18:23.544Z,96079.23
2019-05-05T14:20:50.838Z,96078.09
2019-05-05T14:23:18.681Z,96074.83
2019-05-05T14:25:48.909Z,96074.99
2019-05-05T14:28:18.420Z,96075.15
2019-05-05T14:30:49.553Z,96071.56
2019-05-05T14:35:58.107Z,96072.14
2019-05-05T14:38:36.200Z,96073.59
2019-05-05T14:46:17.080Z,96069.61
2019-05-05T14:48:53.510Z,96068.66
2019-05-05T14:51:21.128Z,96059.69
2019-05-05T14:53:48.287Z,96066.19
2019-05-05T14:56:16.743Z,96051.52
2019-05-05T14:58:51.877Z,96059.02
2019-05-05T15:01:19.079Z,96060.97
2019-05-05T15:03:53.545Z,96061.25
2019-05-05T15:06:20.567Z,96057.00
2019-05-05T15:08:47.595Z,96058.85
2019-05-05T15:11:14.903Z,96058.53
2019-05-05T15:13:43.727Z,96061.13
2019-05-05T15:16:13.919Z,96063.39
2019-05-05T15:18:42.191Z,96069.05
2019-05-05T15:21:09.222Z,96065.48
2019-05-05T15:23:36.268Z,96059.64
2019-05-05T15:26:04.485Z,96064.14
2019-05-05T15:28:33.646Z,96053.92
2019-05-05T15:31:01.078Z,96061.76
2019-05-05T15:33:28.124Z,96059.63
2019-05-05T15:35:55.156Z,96059.95
2019-05-05T15:38:24.350Z,96063.56
2019-05-05T15:40:51.300Z,96068.47
2019-05-05T15:43:18.609Z,96069.95
2019-05-05T15:45:45.874Z,96069.78
2019-05-05T15:48:14.008Z,96071.56
2019-05-05T15:50:41.495Z,96071.84
2019-05-05T15:55:54.667Z,96077.91
2019-05-05T15:58:23.628Z,96075.78
2019-05-05T16:00:51.087Z,96077.39
2019-05-05T16:03:18.441Z,96084.52
2019-05-05T16:05:45.792Z,96086.97
2019-05-05T16:08:14.126Z,96089.77
2019-05-05T16:10:41.364Z,96085.41
2019-05-05T16:13:08.406Z,96083.31
2019-05-05T16:15:35.447Z,96082.50
2019-05-05T16:18:04.086Z,96082.66
2019-05-05T16:20:33.269Z,96081.86
2019-05-05T16:23:00.561Z,96077.13
2019-05-05T16:25:27.912Z,96078.10
2019-05-05T16:27:55.370Z,96073.88
2019-05-05T16:30:23.540Z,96077.27
2019-05-05T16:32:50.740Z,96076.95
2019-05-05T16:35:18.069Z,96076.78
2019-05-05T16:37:45.111Z,96079.07
2019-05-05T16:40:14.462Z,96085.78
2019-05-05T16:42:43.621Z,96089.01
2019-05-05T16:45:10.375Z,96088.55
2019-05-05T16:47:38.839Z,96091.80
2019-05-05T16:50:06.481Z,96087.39
2019-05-05T16:52:33.534Z,96079.72
2019-05-05T16:55:00.882Z,96082.33
2019-05-05T16:57:33.978Z,96084.93
2019-05-05T16:59:58.258Z,96080.04
2019-05-05T17:02:25.612Z,96084.77
2019-05-05T17:04:53.863Z,96091.78
2019-05-05T17:07:21.354Z,96092.91
2019-05-05T17:09:48.380Z,96087.69
2019-05-05T17:12:18.167Z,96087.02
2019-05-05T17:14:44.494Z,96094.33
2019-05-05T17:17:11.751Z,96092.51
2019-05-05T17:19:39.151Z,96094.44
2019-05-05T17:22:06.501Z,96095.89
2019-05-05T17:24:38.928Z,96093.58
2019-05-05T17:27:06.156Z,96101.50
2019-05-05T17:29:34.462Z,96102.61
2019-05-05T17:32:01.963Z,96103.06
2019-05-05T17:34:29.240Z,96095.03
2019-05-05T17:36:56.274Z,96094.84
2019-05-05T17:39:23.765Z,96103.12
2019-05-05T17:41:51.278Z,96099.34
2019-05-05T17:44:18.325Z,96102.08
2019-05-05T17:46:45.686Z,96105.08
2019-05-05T17:49:14.101Z,96103.23
2019-05-05T17:51:43.541Z,96109.74
2019-05-05T17:54:10.273Z,96112.61
2019-05-05T17:56:37.299Z,96115.48
2019-05-05T17:59:04.346Z,96114.93
2019-05-05T18:01:33.550Z,96121.18
2019-05-05T18:04:00.649Z,96122.03
2019-05-05T18:06:30.276Z,96127.96
2019-05-05T18:08:57.322Z,96131.88
2019-05-05T18:11:25.374Z,96120.83
2019-05-05T18:13:54.366Z,96125.55
2019-05-05T18:16:24.440Z,96124.42
2019-05-05T18:18:54.745Z,96121.67
2019-05-05T18:21:23.793Z,96131.88
2019-05-05T18:23:51.442Z,96132.24
2019-05-05T18:26:18.658Z,96128.61
2019-05-05T18:28:48.332Z,96134.98
2019-05-05T18:31:17.531Z,96131.25
2019-05-05T18:33:47.285Z,96130.52
2019-05-05T18:36:14.627Z,96131.75
2019-05-05T18:38:48.862Z,96133.80
2019-05-05T18:43:56.904Z,96150.88
2019-05-05T18:46:25.207Z,96153.41
2019-05-05T18:48:58.392Z,96152.39
2019-05-05T18:51:28.260Z,96155.42
2019-05-05T18:53:57.621Z,96156.59
2019-05-05T18:56:25.861Z,96157.34
2019-05-05T18:58:54.242Z,96160.34
2019-05-05T19:01:27.006Z,96159.11
2019-05-05T19:03:55.166Z,96163.06
2019-05-05T19:06:23.988Z,96160.33
2019-05-05T19:08:57.028Z,96165.38
2019-05-05T19:11:28.255Z,96162.80
2019-05-05T19:14:11.824Z,96167.14
2019-05-05T19:16:39.199Z,96170.19
2019-05-05T19:19:06.237Z,96170.16
2019-05-05T19:29:34.693Z,96184.76
2019-05-05T19:32:10.447Z,96187.27
2019-05-05T19:34:40.633Z,96191.27
2019-05-05T19:37:10.061Z,96180.02
2019-05-05T19:39:41.152Z,96187.00
2019-05-05T19:44:45.228Z,96186.09
2019-05-05T19:47:13.906Z,96188.69
2019-05-05T19:49:53.536Z,96188.20
2019-05-05T19:57:44.717Z,96186.31
2019-05-05T20:00:12.010Z,96176.44
2019-05-05T20:02:39.116Z,96180.79
2019-05-05T20:05:06.182Z,96181.39
2019-05-05T20:07:33.289Z,96178.72
2019-05-05T20:10:00.565Z,96176.52
2019-05-05T20:15:14.742Z,96184.53
2019-05-05T20:17:44.357Z,96184.23
2019-05-05T20:20:11.249Z,96181.74
2019-05-05T20:22:38.290Z,96181.12
2019-05-05T20:25:05.654Z,96181.78
2019-05-05T20:27:34.344Z,96179.12
2019-05-05T20:30:01.495Z,96181.61
2019-05-05T20:32:30.305Z,96185.86
2019-05-05T20:34:57.614Z,96178.36
2019-05-05T20:37:24.967Z,96184.88
2019-05-05T20:39:54.336Z,96177.97
2019-05-05T20:42:21.062Z,96185.04
2019-05-05T20:44:48.363Z,96184.48
2019-05-05T20:47:15.722Z,96192.48
2019-05-05T20:49:44.426Z,96188.73
2019-05-05T20:52:11.538Z,96186.72
2019-05-05T20:54:38.916Z,96177.91
2019-05-05T20:57:06.283Z,96173.19
2019-05-05T20:59:34.299Z,96174.58
2019-05-05T21:02:04.242Z,96170.93
2019-05-05T21:04:30.925Z,96168.34
2019-05-05T21:06:58.251Z,96173.64
2019-05-05T21:09:25.280Z,96175.42
2019-05-05T21:11:54.795Z,96175.09
2019-05-05T21:14:33.807Z,96182.16
2019-05-05T21:16:50.455Z,96179.02
2019-05-05T21:19:17.787Z,96179.03
2019-05-05T21:21:44.841Z,96179.90
2019-05-05T21:24:11.889Z,96172.98
2019-05-05T21:26:39.250Z,96175.34
2019-05-05T21:29:06.616Z,96175.46
2019-05-05T21:31:34.622Z,96175.00
2019-05-05T21:34:01.705Z,96177.94
2019-05-05T21:36:28.712Z,96167.73
2019-05-05T21:38:56.033Z,96170.78
2019-05-05T21:41:24.418Z,96170.77
2019-05-05T21:43:53.949Z,96171.45
2019-05-05T21:46:20.745Z,96169.81
2019-05-05T21:48:47.780Z,96172.74
2019-05-05T21:51:14.816Z,96168.52
2019-05-05T21:53:42.198Z,96176.02
2019-05-05T21:56:09.556Z,96174.81
2019-05-05T21:58:36.843Z,96170.22
2019-05-05T22:01:04.556Z,96170.22
2019-05-05T22:03:34.551Z,96169.75
2019-05-05T22:06:03.675Z,96168.93
2019-05-05T22:08:31.136Z,96168.70
2019-05-05T22:10:58.170Z,96166.71
2019-05-05T22:13:25.543Z,96165.77
2019-05-05T22:15:54.598Z,96164.83
2019-05-05T22:18:22.115Z,96173.27
2019-05-05T22:20:49.403Z,96169.41
2019-05-05T22:23:16.445Z,96171.05
2019-05-05T22:25:43.855Z,96163.30
2019-05-05T22:28:11.215Z,96170.10
2019-05-05T22:30:38.493Z,96172.56
2019-05-05T22:33:06.113Z,96168.11
2019-05-05T22:35:34.950Z,96169.80
2019-05-05T22:38:05.883Z,96174.14
2019-05-05T22:40:31.325Z,96169.92
2019-05-05T22:42:58.619Z,96173.17
2019-05-05T22:45:25.902Z,96169.64
2019-05-05T22:47:54.336Z,96165.77
2019-05-05T22:50:21.704Z,96164.95
2019-05-05T22:52:48.738Z,96163.19
2019-05-05T22:55:16.020Z,96159.31
2019-05-05T22:57:45.171Z,96163.66
2019-05-05T23:00:23.819Z,96167.34
2019-05-05T23:02:44.077Z,96164.05
2019-05-05T23:05:11.044Z,96164.65
2019-05-05T23:07:38.512Z,96163.48
2019-05-05T23:10:05.545Z,96162.30
2019-05-05T23:12:34.914Z,96165.48
2019-05-05T23:15:03.915Z,96160.44
2019-05-05T23:17:30.877Z,96161.73
2019-05-05T23:19:58.342Z,96160.67
2019-05-05T23:22:25.626Z,96159.98
2019-05-05T23:24:54.216Z,96162.91
2019-05-05T23:27:21.500Z,96160.92
2019-05-05T23:29:48.805Z,96164.09
2019-05-05T23:32:16.101Z,96168.20
2019-05-05T23:34:44.537Z,96169.61
2019-05-05T23:37:13.669Z,96171.61
2019-05-05T23:39:40.980Z,96168.22
2019-05-05T23:42:08.086Z,96175.03
2019-05-05T23:44:35.118Z,96177.97
2019-05-05T23:47:04.280Z,96173.86
2019-05-05T23:49:30.894Z,96168.00
2019-05-05T23:51:58.188Z,96173.05
2019-05-05T23:54:25.494Z,96170.94
2019-05-05T23:56:53.783Z,96175.27
2019-05-05T23:59:20.884Z,96172.58
